createdAt,value
2022-11-16T00:01:09.276Z,52.00
2022-11-16T00:03:36.473Z,52.21
2022-11-16T00:06:05.587Z,51.84
2022-11-16T00:08:35.252Z,52.63
2022-11-16T00:11:14.183Z,52.08
2022-11-16T00:13:42.825Z,52.64
2022-11-16T00:16:15.891Z,53.17
2022-11-16T00:18:43.890Z,52.89
2022-11-16T00:21:11.270Z,52.73
2022-11-16T00:23:38.901Z,52.78
2022-11-16T00:26:07.794Z,53.22
2022-11-16T00:28:35.339Z,53.34
2022-11-16T00:31:04.528Z,53.01
2022-11-16T00:33:32.063Z,53.61
2022-11-16T00:36:01.438Z,53.89
2022-11-16T00:38:28.658Z,53.60
2022-11-16T00:40:55.325Z,54.04
2022-11-16T00:43:22.177Z,53.66
2022-11-16T00:45:49.003Z,53.42
2022-11-16T00:48:15.933Z,55.13
2022-11-16T00:50:44.878Z,54.28
2022-11-16T00:53:14.739Z,53.96
2022-11-16T00:55:41.580Z,54.01
2022-11-16T00:58:10.026Z,54.07
2022-11-16T01:00:39.107Z,54.32
2022-11-16T01:03:06.342Z,54.20
2022-11-16T01:05:33.486Z,53.98
2022-11-16T01:08:00.771Z,53.85
2022-11-16T01:10:28.463Z,53.39
2022-11-16T01:12:55.711Z,53.91
2022-11-16T01:15:25.547Z,53.35
2022-11-16T01:17:53.959Z,52.84
2022-11-16T01:20:24.397Z,53.71
2022-11-16T01:22:51.544Z,53.97
2022-11-16T01:25:18.886Z,54.31
2022-11-16T01:27:45.922Z,53.33
2022-11-16T01:30:19.539Z,54.14
2022-11-16T01:32:57.437Z,53.68
2022-11-16T01:35:24.418Z,54.14
2022-11-16T01:37:51.597Z,53.66
2022-11-16T01:40:18.906Z,54.53
2022-11-16T01:42:46.126Z,54.44
2022-11-16T01:45:21.687Z,54.07
2022-11-16T01:47:53.548Z,54.06
2022-11-16T01:50:23.715Z,54.76
2022-11-16T01:52:57.305Z,54.41
2022-11-16T01:55:28.849Z,54.91
2022-11-16T01:58:18.207Z,54.77
2022-11-16T02:00:49.188Z,54.57
2022-11-16T02:03:40.435Z,55.16
2022-11-16T02:06:41.695Z,54.84
2022-11-16T02:09:55.207Z,54.83
2022-11-16T02:12:38.051Z,54.92
2022-11-16T02:15:30.268Z,54.77
2022-11-16T02:18:48.913Z,55.32
2022-11-16T02:21:41.161Z,54.94
2022-11-16T02:24:35.709Z,54.87
2022-11-16T02:27:14.657Z,55.29
2022-11-16T02:29:45.727Z,56.60
2022-11-16T02:32:15.261Z,56.38
2022-11-16T02:34:53.272Z,55.40
2022-11-16T02:37:24.261Z,55.37
2022-11-16T02:39:58.350Z,55.48
2022-11-16T02:42:32.937Z,55.33
2022-11-16T02:45:02.505Z,56.26
2022-11-16T02:47:32.926Z,56.65
2022-11-16T02:50:04.604Z,56.37
2022-11-16T02:52:31.438Z,56.83
2022-11-16T02:54:58.207Z,56.03
2022-11-16T02:57:53.699Z,56.47
2022-11-16T03:00:27.155Z,57.16
2022-11-16T03:03:21.935Z,56.56
2022-11-16T03:05:53.438Z,57.96
2022-11-16T03:08:39.686Z,56.95
2022-11-16T03:11:30.077Z,56.94
2022-11-16T03:14:08.231Z,57.38
2022-11-16T03:16:40.193Z,57.04
2022-11-16T03:19:10.827Z,56.71
2022-11-16T03:21:52.209Z,56.81
2022-11-16T03:24:20.681Z,56.49
2022-11-16T03:26:59.811Z,57.01
2022-11-16T03:29:31.837Z,57.14
2022-11-16T03:32:17.986Z,56.68
2022-11-16T03:34:55.183Z,56.17
2022-11-16T03:37:24.956Z,56.78
2022-11-16T03:39:54.029Z,56.42
2022-11-16T03:42:24.355Z,56.46
2022-11-16T03:44:52.138Z,57.30
2022-11-16T03:47:18.894Z,57.02
2022-11-16T03:49:46.695Z,57.15
2022-11-16T03:52:17.358Z,56.54
2022-11-16T03:54:44.697Z,55.73
2022-11-16T03:57:15.660Z,56.82
2022-11-16T03:59:45.380Z,56.62
2022-11-16T04:02:12.242Z,57.50
2022-11-16T04:04:57.938Z,57.70
2022-11-16T04:07:43.385Z,61.31
2022-11-16T04:10:29.891Z,60.01
2022-11-16T04:13:16.672Z,58.51
2022-11-16T04:16:02.431Z,58.61
2022-11-16T04:18:48.265Z,58.85
2022-11-16T04:21:59.325Z,58.64
2022-11-16T04:24:35.064Z,57.66
2022-11-16T04:27:24.278Z,58.60
2022-11-16T04:29:51.904Z,58.30
2022-11-16T04:32:37.481Z,57.86
2022-11-16T04:35:22.862Z,57.57
2022-11-16T04:37:49.803Z,58.39
2022-11-16T04:40:24.459Z,57.07
2022-11-16T04:42:52.875Z,57.37
2022-11-16T04:45:39.205Z,57.12
2022-11-16T04:48:07.011Z,57.33
2022-11-16T04:50:36.870Z,56.70
2022-11-16T04:53:04.798Z,57.83
2022-11-16T04:55:37.330Z,57.20
2022-11-16T04:58:05.060Z,57.64
2022-11-16T05:00:32.456Z,57.49
2022-11-16T05:03:01.763Z,57.86
2022-11-16T05:05:29.827Z,57.24
2022-11-16T05:07:58.247Z,57.58
2022-11-16T05:10:28.417Z,57.07
2022-11-16T05:12:55.674Z,57.28
2022-11-16T05:15:23.884Z,57.35
2022-11-16T05:17:51.548Z,57.83
2022-11-16T05:20:40.850Z,59.64
2022-11-16T05:23:28.253Z,62.07
2022-11-16T05:25:57.148Z,64.24
2022-11-16T05:28:23.916Z,60.64
2022-11-16T05:30:51.942Z,59.07
2022-11-16T05:33:22.756Z,58.61
2022-11-16T05:35:51.554Z,57.71
2022-11-16T05:38:19.913Z,58.00
2022-11-16T05:40:51.744Z,58.12
2022-11-16T05:43:18.529Z,58.34
2022-11-16T05:45:56.314Z,57.01
2022-11-16T05:48:23.345Z,57.97
2022-11-16T05:50:50.117Z,57.66
2022-11-16T05:53:23.299Z,56.57
2022-11-16T05:55:50.378Z,57.10
2022-11-16T05:58:18.675Z,57.55
2022-11-16T06:00:49.219Z,56.92
2022-11-16T06:03:17.542Z,56.11
2022-11-16T06:05:44.386Z,56.29
2022-11-16T06:08:13.854Z,57.49
2022-11-16T06:10:41.045Z,56.98
2022-11-16T06:13:08.313Z,56.56
2022-11-16T06:15:40.109Z,56.59
2022-11-16T06:18:09.416Z,57.29
2022-11-16T06:20:38.472Z,56.68
2022-11-16T06:23:06.690Z,56.81
2022-11-16T06:25:34.513Z,56.51
2022-11-16T06:28:06.617Z,56.95
2022-11-16T06:30:35.123Z,56.88
2022-11-16T06:33:03.228Z,57.89
2022-11-16T06:35:30.253Z,58.67
2022-11-16T06:37:58.253Z,58.31
2022-11-16T06:40:25.896Z,57.22
2022-11-16T06:42:53.180Z,58.36
2022-11-16T06:45:19.834Z,58.13
2022-11-16T06:47:51.099Z,57.25
2022-11-16T06:50:19.361Z,57.84
2022-11-16T06:52:48.661Z,56.99
2022-11-16T06:55:16.788Z,57.37
2022-11-16T06:57:46.354Z,57.13
2022-11-16T07:00:13.948Z,56.59
2022-11-16T07:02:41.155Z,57.31
2022-11-16T07:05:13.208Z,57.93
2022-11-16T07:07:41.054Z,57.35
2022-11-16T07:10:08.552Z,57.46
2022-11-16T07:12:36.206Z,58.42
2022-11-16T07:15:03.697Z,57.91
2022-11-16T07:17:33.875Z,57.48
2022-11-16T07:20:00.845Z,57.60
2022-11-16T07:22:28.808Z,56.87
2022-11-16T07:24:55.550Z,57.07
2022-11-16T07:27:23.165Z,57.92
2022-11-16T07:29:51.654Z,57.23
2022-11-16T07:32:40.062Z,58.29
2022-11-16T07:35:23.144Z,57.23
2022-11-16T07:37:50.572Z,58.29
2022-11-16T07:40:19.413Z,57.38
2022-11-16T07:42:46.704Z,56.99
2022-11-16T07:45:38.099Z,57.13
2022-11-16T07:48:07.734Z,56.70
2022-11-16T07:50:53.166Z,57.06
2022-11-16T07:53:20.929Z,56.25
2022-11-16T07:55:54.687Z,57.23
2022-11-16T07:58:23.934Z,57.15
2022-11-16T08:00:52.895Z,56.83
2022-11-16T08:03:24.617Z,57.09
2022-11-16T08:06:00.107Z,57.74
2022-11-16T08:08:27.264Z,57.71
2022-11-16T08:11:06.848Z,56.87
2022-11-16T08:13:35.837Z,57.00
2022-11-16T08:16:18.905Z,56.11
2022-11-16T08:18:48.675Z,56.94
2022-11-16T08:21:17.936Z,56.62
2022-11-16T08:23:45.907Z,57.82
2022-11-16T08:26:16.607Z,56.07
2022-11-16T08:28:53.939Z,56.67
2022-11-16T08:31:27.930Z,56.46
2022-11-16T08:34:01.874Z,56.80
2022-11-16T08:36:30.588Z,57.23
2022-11-16T08:38:58.124Z,57.12
2022-11-16T08:41:25.198Z,56.67
2022-11-16T08:43:53.525Z,56.18
2022-11-16T08:46:22.852Z,57.45
2022-11-16T08:48:57.082Z,55.99
2022-11-16T08:54:10.446Z,57.50
2022-11-16T08:56:40.675Z,57.10
2022-11-16T08:59:08.569Z,58.27
2022-11-16T09:01:40.047Z,57.34
2022-11-16T09:04:08.085Z,56.95
2022-11-16T09:06:36.157Z,56.74
2022-11-16T09:09:03.068Z,57.45
2022-11-16T09:11:30.002Z,56.94
2022-11-16T09:13:59.016Z,56.62
2022-11-16T09:16:28.213Z,55.94
2022-11-16T09:18:55.831Z,56.17
2022-11-16T09:21:23.847Z,56.01
2022-11-16T09:23:51.532Z,55.66
2022-11-16T09:26:22.942Z,55.35
2022-11-16T09:28:58.137Z,54.71
2022-11-16T09:31:27.509Z,56.10
2022-11-16T09:33:58.412Z,55.22
2022-11-16T09:36:27.139Z,55.36
2022-11-16T09:39:25.781Z,55.02
2022-11-16T09:41:48.681Z,53.82
2022-11-16T09:44:52.937Z,54.78
2022-11-16T09:47:23.900Z,55.41
2022-11-16T09:50:01.533Z,54.73
2022-11-16T09:55:52.169Z,54.31
2022-11-16T09:58:42.011Z,54.58
2022-11-16T10:01:49.316Z,53.25
2022-11-16T10:04:47.143Z,54.90
2022-11-16T10:07:27.927Z,53.25
2022-11-16T10:09:56.145Z,54.25
2022-11-16T10:12:38.096Z,53.92
2022-11-16T10:15:19.886Z,53.41
2022-11-16T10:17:49.657Z,55.37
2022-11-16T10:20:40.970Z,53.79
2022-11-16T10:23:21.343Z,53.12
2022-11-16T10:25:55.289Z,52.83
2022-11-16T10:28:52.287Z,51.60
2022-11-16T10:31:28.308Z,50.16
2022-11-16T10:33:58.970Z,50.32
2022-11-16T10:36:30.864Z,50.32
2022-11-16T10:39:00.504Z,50.63
2022-11-16T10:41:41.926Z,51.66
2022-11-16T10:44:22.093Z,50.88
2022-11-16T10:47:04.944Z,51.16
2022-11-16T10:49:40.513Z,51.20
2022-11-16T10:52:07.411Z,52.16
2022-11-16T10:54:34.306Z,50.26
2022-11-16T10:57:08.961Z,50.99
2022-11-16T10:59:53.306Z,51.57
2022-11-16T11:02:20.114Z,49.63
2022-11-16T11:05:01.046Z,50.52
2022-11-16T11:07:42.303Z,50.55
2022-11-16T11:10:30.792Z,49.14
2022-11-16T11:13:19.686Z,48.80
2022-11-16T11:15:48.071Z,48.10
2022-11-16T11:18:25.423Z,48.27
2022-11-16T11:21:15.274Z,48.58
2022-11-16T11:23:53.940Z,48.03
2022-11-16T11:26:38.623Z,48.00
2022-11-16T11:29:20.711Z,48.32
2022-11-16T11:31:52.015Z,47.79
2022-11-16T11:34:25.507Z,48.35
2022-11-16T11:36:58.055Z,47.41
2022-11-16T11:42:17.912Z,47.43
2022-11-16T11:44:54.622Z,47.75
2022-11-16T11:48:02.121Z,48.00
2022-11-16T11:50:40.445Z,46.87
2022-11-16T11:53:10.458Z,46.95
2022-11-16T11:55:37.753Z,47.44
2022-11-16T11:58:06.170Z,47.76
2022-11-16T12:01:00.872Z,47.13
2022-11-16T12:03:42.235Z,47.87
2022-11-16T12:06:22.701Z,47.11
2022-11-16T12:09:23.315Z,47.37
2022-11-16T12:11:58.941Z,48.02
2022-11-16T12:14:56.073Z,48.81
2022-11-16T12:17:22.919Z,48.43
2022-11-16T12:20:16.157Z,47.69
2022-11-16T12:22:48.618Z,47.71
2022-11-16T12:25:57.017Z,47.59
2022-11-16T12:28:41.213Z,47.62
2022-11-16T12:31:33.060Z,47.75
2022-11-16T12:34:23.155Z,47.48
2022-11-16T12:37:05.900Z,46.93
2022-11-16T12:39:44.790Z,47.03
2022-11-16T12:42:30.468Z,46.67
2022-11-16T12:45:19.291Z,47.27
2022-11-16T12:48:26.647Z,47.98
2022-11-16T12:51:14.883Z,47.24
2022-11-16T12:54:02.611Z,47.35
2022-11-16T12:56:37.957Z,46.28
2022-11-16T12:59:17.332Z,45.69
2022-11-16T13:02:17.294Z,45.38
2022-11-16T13:04:51.112Z,45.57
2022-11-16T13:07:24.965Z,44.97
2022-11-16T13:10:03.041Z,45.61
2022-11-16T13:12:31.497Z,45.57
2022-11-16T13:15:02.209Z,46.77
2022-11-16T13:17:34.376Z,47.00
2022-11-16T13:20:27.850Z,47.12
2022-11-16T13:23:05.098Z,46.10
2022-11-16T13:25:39.245Z,45.92
2022-11-16T13:28:33.519Z,45.74
2022-11-16T13:31:08.838Z,46.43
2022-11-16T13:33:51.194Z,46.54
2022-11-16T13:36:46.330Z,46.96
2022-11-16T13:39:22.841Z,47.54
2022-11-16T13:42:05.027Z,46.59
2022-11-16T13:44:36.248Z,46.76
2022-11-16T13:47:07.148Z,46.94
2022-11-16T13:49:41.029Z,47.16
2022-11-16T13:52:23.274Z,47.11
2022-11-16T13:54:55.719Z,46.88
2022-11-16T13:57:27.098Z,47.41
2022-11-16T14:00:10.615Z,46.49
2022-11-16T14:02:42.087Z,46.48
2022-11-16T14:05:39.526Z,46.55
2022-11-16T14:08:24.450Z,47.40
2022-11-16T14:10:51.371Z,47.03
2022-11-16T14:13:30.332Z,47.52
2022-11-16T14:16:15.570Z,47.37
2022-11-16T14:18:43.840Z,47.24
2022-11-16T14:21:10.502Z,47.30
2022-11-16T14:24:09.886Z,46.92
2022-11-16T14:27:10.628Z,48.11
2022-11-16T14:29:46.518Z,48.04
2022-11-16T14:32:41.300Z,48.21
2022-11-16T14:35:36.744Z,47.63
2022-11-16T14:38:17.894Z,48.62
2022-11-16T14:40:54.917Z,47.68
2022-11-16T14:43:49.961Z,48.05
2022-11-16T14:46:27.028Z,48.15
2022-11-16T14:48:59.258Z,47.64
2022-11-16T14:51:34.627Z,47.98
2022-11-16T14:54:15.979Z,48.43
2022-11-16T14:57:03.221Z,48.17
2022-11-16T14:59:32.009Z,48.86
2022-11-16T15:02:03.890Z,48.46
2022-11-16T15:04:31.699Z,48.15
2022-11-16T15:07:03.142Z,48.19
2022-11-16T15:09:39.500Z,48.63
2022-11-16T15:12:31.780Z,49.10
2022-11-16T15:15:04.278Z,49.16
2022-11-16T15:17:33.426Z,48.69
2022-11-16T15:20:03.595Z,48.53
2022-11-16T15:22:32.576Z,48.82
2022-11-16T15:25:01.019Z,49.20
2022-11-16T15:27:27.949Z,48.62
2022-11-16T15:29:55.130Z,48.37
2022-11-16T15:32:21.798Z,48.71
2022-11-16T15:34:53.435Z,48.84
2022-11-16T15:37:28.202Z,48.51
2022-11-16T15:39:56.389Z,48.61
2022-11-16T15:42:25.677Z,50.12
2022-11-16T15:44:53.070Z,49.27
2022-11-16T15:47:21.593Z,49.26
2022-11-16T15:49:52.932Z,49.62
2022-11-16T15:52:50.471Z,49.89
2022-11-16T15:55:40.014Z,49.23
2022-11-16T15:58:26.902Z,49.47
2022-11-16T16:00:55.208Z,49.84
2022-11-16T16:03:24.915Z,49.94
2022-11-16T16:05:53.087Z,50.66
2022-11-16T16:08:31.959Z,49.86
2022-11-16T16:10:59.457Z,50.13
2022-11-16T16:13:32.505Z,52.05
2022-11-16T16:16:12.919Z,51.15
2022-11-16T16:18:44.342Z,50.60
2022-11-16T16:21:12.830Z,50.97
2022-11-16T16:23:53.875Z,50.12
2022-11-16T16:26:21.754Z,50.99
2022-11-16T16:28:50.315Z,50.67
2022-11-16T16:31:19.220Z,50.73
2022-11-16T16:33:46.585Z,50.33
2022-11-16T16:36:13.755Z,51.34
2022-11-16T16:38:40.594Z,51.21
2022-11-16T16:41:08.113Z,51.16
2022-11-16T16:43:35.517Z,51.32
2022-11-16T16:46:04.072Z,51.89
2022-11-16T16:48:31.071Z,53.22
2022-11-16T16:50:57.793Z,52.03
2022-11-16T16:53:24.606Z,51.62
2022-11-16T16:55:51.760Z,51.40
2022-11-16T16:58:18.579Z,52.15
2022-11-16T17:00:46.558Z,53.19
2022-11-16T17:03:20.463Z,52.57
2022-11-16T17:05:47.314Z,53.23
2022-11-16T17:08:13.982Z,53.84
2022-11-16T17:10:40.763Z,53.66
2022-11-16T17:13:10.098Z,53.25
2022-11-16T17:15:36.774Z,53.62
2022-11-16T17:18:04.643Z,53.77
2022-11-16T17:20:32.890Z,53.29
2022-11-16T17:23:00.593Z,56.23
2022-11-16T17:25:27.728Z,57.77
2022-11-16T17:27:55.058Z,56.01
2022-11-16T17:30:21.990Z,56.08
2022-11-16T17:32:48.840Z,56.06
2022-11-16T17:35:15.862Z,55.54
2022-11-16T17:37:42.620Z,54.24
2022-11-16T17:40:12.502Z,54.53
2022-11-16T17:42:39.322Z,55.13
2022-11-16T17:45:06.678Z,58.47
2022-11-16T17:47:33.886Z,57.53
2022-11-16T17:50:01.046Z,57.57
2022-11-16T17:52:27.831Z,56.49
2022-11-16T17:54:54.627Z,57.57
2022-11-16T17:57:21.378Z,60.29
2022-11-16T17:59:48.185Z,59.30
2022-11-16T18:02:14.903Z,58.36
2022-11-16T18:04:43.609Z,57.41
2022-11-16T18:07:12.627Z,56.84
2022-11-16T18:09:39.268Z,57.20
2022-11-16T18:12:06.143Z,56.71
2022-11-16T18:14:32.926Z,57.16
2022-11-16T18:16:59.680Z,56.30
2022-11-16T18:19:26.359Z,57.53
2022-11-16T18:21:53.121Z,57.58
2022-11-16T18:24:19.968Z,58.39
2022-11-16T18:26:46.666Z,58.48
2022-11-16T18:29:16.100Z,57.85
2022-11-16T18:31:43.227Z,58.21
2022-11-16T18:34:13.561Z,58.66
2022-11-16T18:36:40.402Z,59.03
2022-11-16T18:39:07.430Z,58.43
2022-11-16T18:41:34.347Z,58.17
2022-11-16T18:44:02.269Z,58.72
2022-11-16T18:46:31.539Z,58.38
2022-11-16T18:48:59.120Z,57.46
2022-11-16T18:51:27.694Z,56.60
2022-11-16T18:53:55.307Z,55.99
2022-11-16T18:56:22.939Z,55.80
2022-11-16T18:58:52.070Z,55.72
2022-11-16T19:01:22.300Z,56.37
2022-11-16T19:03:49.843Z,56.63
2022-11-16T19:06:17.839Z,57.21
2022-11-16T19:08:53.719Z,55.86
2022-11-16T19:11:23.412Z,55.53
2022-11-16T19:13:53.869Z,57.26
2022-11-16T19:16:21.039Z,60.16
2022-11-16T19:18:47.868Z,60.25
2022-11-16T19:21:16.946Z,57.64
2022-11-16T19:23:48.875Z,59.00
2022-11-16T19:26:18.451Z,57.26
2022-11-16T19:28:46.952Z,56.49
2022-11-16T19:31:19.985Z,57.40
2022-11-16T19:33:47.171Z,59.81
2022-11-16T19:36:18.878Z,58.15
2022-11-16T19:38:47.490Z,58.14
2022-11-16T19:41:16.503Z,57.24
2022-11-16T19:43:43.192Z,57.35
2022-11-16T19:46:13.448Z,57.21
2022-11-16T19:48:40.162Z,56.99
2022-11-16T19:51:16.139Z,56.80
2022-11-16T19:53:43.358Z,56.75
2022-11-16T19:56:12.247Z,57.59
2022-11-16T19:58:39.220Z,58.27
2022-11-16T20:01:18.418Z,57.66
2022-11-16T20:03:46.201Z,57.44
2022-11-16T20:06:18.066Z,57.26
2022-11-16T20:08:53.976Z,56.99
2022-11-16T20:11:22.116Z,58.71
2022-11-16T20:13:50.470Z,60.25
2022-11-16T20:16:19.271Z,60.83
2022-11-16T20:18:46.587Z,60.04
2022-11-16T20:21:30.941Z,58.24
2022-11-16T20:24:03.027Z,60.08
2022-11-16T20:26:34.936Z,58.53
2022-11-16T20:29:02.087Z,57.80
2022-11-16T20:31:31.000Z,57.12
2022-11-16T20:34:00.235Z,57.17
2022-11-16T20:36:29.699Z,57.09
2022-11-16T20:38:57.758Z,56.68
2022-11-16T20:41:29.923Z,57.40
2022-11-16T20:43:58.717Z,60.81
2022-11-16T20:46:28.083Z,61.09
2022-11-16T20:48:57.049Z,58.94
2022-11-16T20:51:23.813Z,57.88
2022-11-16T20:53:52.431Z,58.36
2022-11-16T20:56:20.432Z,57.17
2022-11-16T20:58:48.755Z,57.10
2022-11-16T21:01:31.884Z,56.91
2022-11-16T21:04:04.082Z,57.92
2022-11-16T21:06:32.833Z,58.61
2022-11-16T21:09:00.034Z,59.38
2022-11-16T21:11:55.806Z,58.99
2022-11-16T21:14:23.066Z,59.00
2022-11-16T21:16:49.834Z,57.36
2022-11-16T21:19:19.897Z,57.75
2022-11-16T21:21:46.611Z,58.93
2022-11-16T21:24:13.471Z,58.36
2022-11-16T21:26:40.275Z,58.26
2022-11-16T21:29:07.136Z,58.00
2022-11-16T21:31:36.325Z,58.93
2022-11-16T21:34:04.691Z,57.26
2022-11-16T21:36:32.709Z,57.63
2022-11-16T21:39:00.270Z,57.46
2022-11-16T21:41:27.783Z,57.87
2022-11-16T21:43:55.023Z,57.53
2022-11-16T21:46:25.002Z,56.38
2022-11-16T21:48:53.813Z,56.31
2022-11-16T21:51:22.896Z,56.41
2022-11-16T21:53:49.644Z,55.89
2022-11-16T21:56:21.850Z,57.61
2022-11-16T21:58:50.465Z,56.99
2022-11-16T22:01:17.465Z,56.99
2022-11-16T22:03:44.934Z,57.92
2022-11-16T22:06:34.434Z,58.73
2022-11-16T22:09:01.404Z,61.83
2022-11-16T22:11:28.191Z,60.21
2022-11-16T22:13:55.098Z,58.82
2022-11-16T22:16:23.495Z,59.37
2022-11-16T22:18:50.930Z,58.31
2022-11-16T22:21:18.043Z,57.52
2022-11-16T22:23:44.931Z,58.82
2022-11-16T22:26:13.430Z,59.47
2022-11-16T22:28:40.859Z,58.74
2022-11-16T22:31:15.080Z,57.96
2022-11-16T22:33:42.250Z,58.27
2022-11-16T22:36:10.552Z,57.37
2022-11-16T22:38:38.236Z,57.45
2022-11-16T22:41:05.405Z,57.39
2022-11-16T22:43:33.159Z,57.87
2022-11-16T22:46:05.394Z,58.24
2022-11-16T22:48:34.518Z,58.57
2022-11-16T22:51:03.407Z,58.81
2022-11-16T22:53:30.150Z,58.31
2022-11-16T22:56:07.866Z,58.88
2022-11-16T22:58:35.958Z,58.15
2022-11-16T23:01:03.689Z,57.75
2022-11-16T23:03:30.658Z,57.96
2022-11-16T23:05:57.519Z,58.46
2022-11-16T23:08:27.343Z,57.75
2022-11-16T23:11:23.710Z,58.00
2022-11-16T23:14:11.714Z,57.58
2022-11-16T23:16:39.885Z,57.69
2022-11-16T23:19:28.140Z,58.94
2022-11-16T23:22:14.479Z,59.82
2022-11-16T23:24:59.815Z,60.17
2022-11-16T23:27:33.624Z,58.87
2022-11-16T23:30:05.448Z,58.25
2022-11-16T23:32:36.142Z,61.48
2022-11-16T23:35:03.218Z,64.76
2022-11-16T23:37:29.917Z,61.03
2022-11-16T23:39:56.587Z,60.56
2022-11-16T23:42:42.068Z,60.90
2022-11-16T23:45:09.231Z,61.16
2022-11-16T23:47:36.015Z,61.63
2022-11-16T23:50:03.166Z,59.99
2022-11-16T23:52:29.871Z,59.56
2022-11-16T23:54:56.524Z,59.78
2022-11-16T23:57:23.563Z,60.15
2022-11-16T23:59:50.265Z,60.95
